createdAt,value
2018-02-02T00:01:12.443Z,64.60
2018-02-02T00:03:38.941Z,64.30
2018-02-02T00:06:05.532Z,64.20
2018-02-02T00:08:31.924Z,64.30
2018-02-02T00:10:58.613Z,64.20
2018-02-02T00:13:25.160Z,64.20
2018-02-02T00:15:51.672Z,64.20
2018-02-02T00:18:18.232Z,64.70
2018-02-02T00:20:45.368Z,64.90
2018-02-02T00:23:11.908Z,64.30
2018-02-02T00:25:38.415Z,63.80
2018-02-02T00:28:05.208Z,63.80
2018-02-02T00:30:31.809Z,63.80
2018-02-02T00:32:58.294Z,64.40
2018-02-02T00:35:24.663Z,64.90
2018-02-02T00:37:51.044Z,64.80
2018-02-02T00:40:17.583Z,64.40
2018-02-02T00:42:44.121Z,63.90
2018-02-02T00:45:10.980Z,63.90
2018-02-02T00:47:37.483Z,64.10
2018-02-02T00:50:04.055Z,63.90
2018-02-02T00:52:31.240Z,64.10
2018-02-02T00:54:58.085Z,64.30
2018-02-02T00:57:24.575Z,64.40
2018-02-02T00:59:51.157Z,64.40
2018-02-02T01:02:17.535Z,64.70
2018-02-02T01:04:44.236Z,64.80
2018-02-02T01:07:11.076Z,64.40
2018-02-02T01:09:37.847Z,63.90
2018-02-02T01:12:04.396Z,64.60
2018-02-02T01:14:30.939Z,65.00
2018-02-02T01:16:57.816Z,65.40
2018-02-02T01:19:24.315Z,65.20
2018-02-02T01:21:50.838Z,65.10
2018-02-02T01:24:18.179Z,65.00
2018-02-02T01:26:45.180Z,65.00
2018-02-02T01:29:11.728Z,65.00
2018-02-02T01:31:38.207Z,65.30
2018-02-02T01:34:04.736Z,64.80
2018-02-02T01:36:31.300Z,65.00
2018-02-02T01:38:57.739Z,65.10
2018-02-02T01:41:24.729Z,64.70
2018-02-02T01:43:51.228Z,64.80
2018-02-02T01:46:17.801Z,64.80
2018-02-02T01:48:44.324Z,65.20
2018-02-02T01:51:11.028Z,64.90
2018-02-02T01:53:37.707Z,64.30
2018-02-02T01:56:04.261Z,64.60
2018-02-02T01:58:30.764Z,64.40
2018-02-02T02:00:57.284Z,64.40
2018-02-02T02:03:24.148Z,64.80
2018-02-02T02:05:50.519Z,64.80
2018-02-02T02:08:17.200Z,65.30
2018-02-02T02:10:43.992Z,65.30
2018-02-02T02:13:11.628Z,65.30
2018-02-02T02:15:38.631Z,65.20
2018-02-02T02:18:05.143Z,64.70
2018-02-02T02:20:32.060Z,64.60
2018-02-02T02:22:58.528Z,64.70
2018-02-02T02:25:25.177Z,65.00
2018-02-02T02:27:51.587Z,65.20
2018-02-02T02:30:18.112Z,65.40
2018-02-02T02:32:44.545Z,65.70
2018-02-02T02:35:11.256Z,65.50
2018-02-02T02:37:38.755Z,65.20
2018-02-02T02:40:05.167Z,65.20
2018-02-02T02:42:31.766Z,65.20
2018-02-02T02:44:58.255Z,65.30
2018-02-02T02:47:24.663Z,65.40
2018-02-02T02:49:51.327Z,65.40
2018-02-02T02:52:17.840Z,65.20
2018-02-02T02:54:44.384Z,65.40
2018-02-02T02:57:10.916Z,65.50
2018-02-02T02:59:37.327Z,65.10
2018-02-02T03:02:03.990Z,65.30
2018-02-02T03:04:30.853Z,64.70
2018-02-02T03:06:57.393Z,64.50
2018-02-02T03:09:23.924Z,64.70
2018-02-02T03:11:50.438Z,65.00
2018-02-02T03:14:17.322Z,65.20
2018-02-02T03:16:43.872Z,65.20
2018-02-02T03:19:10.591Z,65.40
2018-02-02T03:21:37.222Z,65.00
2018-02-02T03:24:03.786Z,64.80
2018-02-02T03:26:30.521Z,64.50
2018-02-02T03:28:57.103Z,64.60
2018-02-02T03:31:23.639Z,64.80
2018-02-02T03:33:50.307Z,64.80
2018-02-02T03:36:16.711Z,65.00
2018-02-02T03:38:43.247Z,65.10
2018-02-02T03:41:09.794Z,65.50
2018-02-02T03:43:36.367Z,65.60
2018-02-02T03:46:02.920Z,65.90
2018-02-02T03:48:29.392Z,66.30
2018-02-02T03:50:55.970Z,66.60
2018-02-02T03:53:22.731Z,66.80
2018-02-02T03:55:49.310Z,66.70
2018-02-02T03:58:15.843Z,67.10
2018-02-02T04:00:42.432Z,66.70
2018-02-02T04:03:08.900Z,66.80
2018-02-02T04:05:35.513Z,67.40
2018-02-02T04:08:02.054Z,67.20
2018-02-02T04:10:28.580Z,67.60
2018-02-02T04:12:55.110Z,67.50
2018-02-02T04:15:21.579Z,67.20
2018-02-02T04:17:48.127Z,67.30
2018-02-02T04:20:14.572Z,66.60
2018-02-02T04:22:41.264Z,66.50
2018-02-02T04:25:07.772Z,66.60
2018-02-02T04:27:34.272Z,67.20
2018-02-02T04:30:00.800Z,68.10
2018-02-02T04:32:27.731Z,68.30
2018-02-02T04:35:00.133Z,68.80
2018-02-02T04:37:26.588Z,68.80
2018-02-02T04:39:52.989Z,68.70
2018-02-02T04:42:19.720Z,68.20
2018-02-02T04:44:46.208Z,67.70
2018-02-02T04:47:12.740Z,68.00
2018-02-02T04:49:39.293Z,68.30
2018-02-02T04:52:06.059Z,68.60
2018-02-02T04:54:32.603Z,68.30
2018-02-02T04:56:59.028Z,68.60
2018-02-02T04:59:25.784Z,68.90
2018-02-02T05:01:52.203Z,69.10
2018-02-02T05:04:18.824Z,68.90
2018-02-02T05:06:45.592Z,68.90
2018-02-02T05:09:12.184Z,68.80
2018-02-02T05:11:38.680Z,68.70
2018-02-02T05:14:05.183Z,68.10
2018-02-02T05:16:31.771Z,68.50
2018-02-02T05:18:58.600Z,68.80
2018-02-02T05:21:25.156Z,68.60
2018-02-02T05:23:51.956Z,68.60
2018-02-02T05:26:18.471Z,68.60
2018-02-02T05:28:45.127Z,68.50
2018-02-02T05:31:11.561Z,68.90
2018-02-02T05:33:38.087Z,69.20
2018-02-02T05:36:04.628Z,69.50
2018-02-02T05:38:31.208Z,69.80
2018-02-02T05:40:57.991Z,69.80
2018-02-02T05:43:24.523Z,69.80
2018-02-02T05:45:51.180Z,69.90
2018-02-02T05:48:17.667Z,69.70
2018-02-02T05:50:44.033Z,69.30
2018-02-02T05:53:11.052Z,69.90
2018-02-02T05:55:37.541Z,70.50
2018-02-02T05:58:04.056Z,70.80
2018-02-02T06:00:30.915Z,71.00
2018-02-02T06:02:57.415Z,70.60
2018-02-02T06:05:24.329Z,71.50
2018-02-02T06:07:50.864Z,72.00
2018-02-02T06:10:17.343Z,72.00
2018-02-02T06:12:43.964Z,72.20
2018-02-02T06:15:10.472Z,71.90
2018-02-02T06:17:36.887Z,71.10
2018-02-02T06:20:03.472Z,70.80
2018-02-02T06:22:30.080Z,70.70
2018-02-02T06:24:56.620Z,70.60
2018-02-02T06:27:23.139Z,70.30
2018-02-02T06:29:49.994Z,69.90
2018-02-02T06:32:16.456Z,69.50
2018-02-02T06:34:43.360Z,68.90
2018-02-02T06:37:09.836Z,68.40
2018-02-02T06:39:36.433Z,68.70
2018-02-02T06:42:03.045Z,68.80
2018-02-02T06:44:29.796Z,68.30
2018-02-02T06:46:56.632Z,68.70
2018-02-02T06:49:23.200Z,68.70
2018-02-02T06:51:49.701Z,68.20
2018-02-02T06:54:16.499Z,67.80
2018-02-02T06:56:43.044Z,67.50
2018-02-02T06:59:09.576Z,67.50
2018-02-02T07:01:36.100Z,67.10
2018-02-02T07:04:02.716Z,66.50
2018-02-02T07:06:29.179Z,66.20
2018-02-02T07:08:55.780Z,66.40
2018-02-02T07:11:22.155Z,66.20
2018-02-02T07:13:48.863Z,66.10
2018-02-02T07:16:15.632Z,65.30
2018-02-02T07:18:42.164Z,65.10
2018-02-02T07:21:08.756Z,65.80
2018-02-02T07:23:35.238Z,65.10
2018-02-02T07:26:02.064Z,65.10
2018-02-02T07:28:28.635Z,65.20
2018-02-02T07:30:55.454Z,64.90
2018-02-02T07:33:22.044Z,64.50
2018-02-02T07:35:48.592Z,64.20
2018-02-02T07:38:15.115Z,63.90
2018-02-02T07:40:41.627Z,63.80
2018-02-02T07:43:08.156Z,64.20
2018-02-02T07:45:34.680Z,64.70
2018-02-02T07:48:01.217Z,64.90
2018-02-02T07:50:28.092Z,64.90
2018-02-02T07:52:54.571Z,64.70
2018-02-02T07:55:21.174Z,64.60
2018-02-02T07:57:47.756Z,64.60
2018-02-02T08:00:14.810Z,64.50
2018-02-02T08:02:41.264Z,64.30
2018-02-02T08:05:07.636Z,64.30
2018-02-02T08:07:34.143Z,64.30
2018-02-02T08:10:00.647Z,64.20
2018-02-02T08:12:27.155Z,63.80
2018-02-02T08:14:53.698Z,63.30
2018-02-02T08:17:20.298Z,62.90
2018-02-02T08:19:46.828Z,62.50
2018-02-02T08:22:13.295Z,62.60
2018-02-02T08:24:39.963Z,62.60
2018-02-02T08:27:06.448Z,60.60
2018-02-02T08:29:32.918Z,59.50
2018-02-02T08:31:59.290Z,59.10
2018-02-02T08:34:26.044Z,59.40
2018-02-02T08:36:52.526Z,59.50
2018-02-02T08:39:19.120Z,59.20
2018-02-02T08:41:45.755Z,59.80
2018-02-02T08:44:14.332Z,59.90
2018-02-02T08:46:40.805Z,60.30
2018-02-02T08:49:07.344Z,60.80
2018-02-02T08:51:33.872Z,60.80
2018-02-02T08:54:00.784Z,60.70
2018-02-02T08:56:27.257Z,61.40
2018-02-02T08:58:54.164Z,61.60
2018-02-02T09:01:26.792Z,61.50
2018-02-02T09:03:53.328Z,61.50
2018-02-02T09:06:19.858Z,61.40
2018-02-02T09:08:46.371Z,61.30
2018-02-02T09:11:12.907Z,61.30
2018-02-02T09:13:39.509Z,61.50
2018-02-02T09:16:06.047Z,61.90
2018-02-02T09:18:32.828Z,61.80
2018-02-02T09:20:59.676Z,62.30
2018-02-02T09:23:26.213Z,63.20
2018-02-02T09:25:52.731Z,63.40
2018-02-02T09:28:19.276Z,63.20
2018-02-02T09:30:45.888Z,63.00
2018-02-02T09:33:12.343Z,62.90
2018-02-02T09:35:38.878Z,62.90
2018-02-02T09:38:05.467Z,62.50
2018-02-02T09:40:32.061Z,62.40
2018-02-02T09:42:58.592Z,61.70
2018-02-02T09:45:25.015Z,61.50
2018-02-02T09:47:51.564Z,61.60
2018-02-02T09:50:18.172Z,61.40
2018-02-02T09:52:44.644Z,61.50
2018-02-02T09:55:11.030Z,59.50
2018-02-02T09:57:37.772Z,56.20
2018-02-02T10:00:04.288Z,53.10
2018-02-02T10:02:30.769Z,48.00
2018-02-02T10:04:57.299Z,44.80
2018-02-02T10:07:24.168Z,45.70
2018-02-02T10:09:50.752Z,44.70
2018-02-02T10:12:17.298Z,43.00
2018-02-02T10:14:43.852Z,41.90
2018-02-02T10:17:10.294Z,40.40
2018-02-02T10:19:37.123Z,40.40
2018-02-02T10:22:03.568Z,38.50
2018-02-02T10:24:30.289Z,38.10
2018-02-02T10:26:57.108Z,37.40
2018-02-02T10:29:23.604Z,37.50
2018-02-02T10:31:50.184Z,37.10
2018-02-02T10:34:16.676Z,36.10
2018-02-02T10:36:43.547Z,34.90
2018-02-02T10:39:10.013Z,33.70
2018-02-02T10:41:36.864Z,33.30
2018-02-02T10:44:03.444Z,33.30
2018-02-02T10:46:29.948Z,33.00
2018-02-02T10:48:56.328Z,33.20
2018-02-02T10:51:23.008Z,33.00
2018-02-02T10:53:49.583Z,33.00
2018-02-02T10:56:16.063Z,32.90
2018-02-02T10:58:42.624Z,33.10
2018-02-02T11:01:15.192Z,32.00
2018-02-02T11:03:56.781Z,32.90
2018-02-02T11:06:23.502Z,32.90
2018-02-02T11:08:49.997Z,33.70
2018-02-02T11:11:17.743Z,33.90
2018-02-02T11:13:44.136Z,34.30
2018-02-02T11:16:10.812Z,33.60
2018-02-02T11:18:37.323Z,35.00
2018-02-02T11:21:03.928Z,35.20
2018-02-02T11:23:30.395Z,35.50
2018-02-02T11:25:56.988Z,35.20
2018-02-02T11:28:23.604Z,37.00
2018-02-02T11:30:49.983Z,38.60
2018-02-02T11:33:16.541Z,38.90
2018-02-02T11:35:43.464Z,40.20
2018-02-02T11:38:09.972Z,40.30
2018-02-02T11:40:36.572Z,40.40
2018-02-02T11:43:02.988Z,40.40
2018-02-02T11:45:29.532Z,41.70
2018-02-02T11:47:56.124Z,43.70
2018-02-02T11:50:22.656Z,43.30
2018-02-02T11:52:49.191Z,43.40
2018-02-02T11:55:15.643Z,43.40
2018-02-02T11:57:42.455Z,42.50
2018-02-02T12:00:09.106Z,43.10
2018-02-02T12:02:35.567Z,43.10
2018-02-02T12:05:02.108Z,43.00
2018-02-02T12:07:28.752Z,43.00
2018-02-02T12:09:55.175Z,43.30
2018-02-02T12:12:21.764Z,43.80
2018-02-02T12:14:48.230Z,44.60
2018-02-02T12:17:14.884Z,45.00
2018-02-02T12:19:41.363Z,45.10
2018-02-02T12:22:13.811Z,45.40
2018-02-02T12:24:46.204Z,45.70
2018-02-02T12:40:34.143Z,47.60
2018-02-02T12:43:00.676Z,47.40
2018-02-02T12:45:27.148Z,47.80
2018-02-02T12:47:59.703Z,48.30
2018-02-02T12:50:33.781Z,48.40
2018-02-02T12:53:00.412Z,48.90
2018-02-02T12:55:26.929Z,48.60
2018-02-02T12:57:53.331Z,49.70
2018-02-02T13:00:19.868Z,49.90
2018-02-02T13:02:46.496Z,49.40
2018-02-02T13:05:12.957Z,49.00
2018-02-02T13:07:39.554Z,48.40
2018-02-02T13:10:06.024Z,50.00
2018-02-02T13:12:32.600Z,49.10
2018-02-02T13:14:59.136Z,49.30
2018-02-02T13:17:25.923Z,48.80
2018-02-02T13:19:52.291Z,48.60
2018-02-02T13:22:19.672Z,48.80
2018-02-02T13:24:46.144Z,48.90
2018-02-02T13:27:12.672Z,49.00
2018-02-02T13:29:39.620Z,48.80
2018-02-02T13:32:06.100Z,48.80
2018-02-02T13:34:32.615Z,48.80
2018-02-02T13:36:59.200Z,48.90
2018-02-02T13:39:25.754Z,48.90
2018-02-02T13:41:52.195Z,48.60
2018-02-02T13:44:18.791Z,48.50
2018-02-02T13:46:45.144Z,47.40
2018-02-02T13:49:11.876Z,47.60
2018-02-02T13:51:38.409Z,47.90
2018-02-02T13:54:04.889Z,48.60
2018-02-02T13:56:31.410Z,48.30
2018-02-02T13:58:57.996Z,48.80
2018-02-02T14:01:24.796Z,48.50
2018-02-02T14:03:51.343Z,48.10
2018-02-02T14:06:17.972Z,47.70
2018-02-02T14:08:44.469Z,47.60
2018-02-02T14:11:10.891Z,49.30
2018-02-02T14:13:37.256Z,49.40
2018-02-02T14:16:04.383Z,48.30
2018-02-02T14:18:30.850Z,47.40
2018-02-02T14:20:57.199Z,47.10
2018-02-02T14:23:23.603Z,47.00
2018-02-02T14:25:50.145Z,46.60
2018-02-02T14:28:17.061Z,46.40
2018-02-02T14:30:43.519Z,46.40
2018-02-02T14:33:10.132Z,47.00
2018-02-02T14:35:36.641Z,47.80
2018-02-02T14:38:03.120Z,47.80
2018-02-02T14:40:29.495Z,47.30
2018-02-02T14:42:56.508Z,47.70
2018-02-02T14:45:23.438Z,48.50
2018-02-02T14:50:39.196Z,49.30
2018-02-02T14:53:05.688Z,49.50
2018-02-02T14:55:32.229Z,49.30
2018-02-02T14:57:58.774Z,49.90
2018-02-02T15:00:25.406Z,50.40
2018-02-02T15:02:51.872Z,50.30
2018-02-02T15:05:18.304Z,50.40
2018-02-02T15:07:44.948Z,50.80
2018-02-02T15:10:11.748Z,51.10
2018-02-02T15:12:38.300Z,51.20
2018-02-02T15:15:05.273Z,51.20
2018-02-02T15:17:31.959Z,51.20
2018-02-02T15:19:58.560Z,51.60
2018-02-02T15:22:25.424Z,51.50
2018-02-02T15:24:51.972Z,51.70
2018-02-02T15:27:19.091Z,51.60
2018-02-02T15:29:45.555Z,51.60
2018-02-02T15:32:11.924Z,51.70
2018-02-02T15:34:38.388Z,51.60
2018-02-02T15:37:04.973Z,51.60
2018-02-02T15:39:31.464Z,51.40
2018-02-02T15:41:57.984Z,52.00
2018-02-02T15:44:24.455Z,51.90
2018-02-02T15:46:50.996Z,51.80
2018-02-02T15:49:17.387Z,52.10
2018-02-02T15:51:44.124Z,52.20
2018-02-02T15:54:10.641Z,52.50
2018-02-02T15:56:38.673Z,52.60
2018-02-02T15:59:05.039Z,52.20
2018-02-02T16:01:31.427Z,53.60
2018-02-02T16:03:58.277Z,54.50
2018-02-02T16:06:24.812Z,54.90
2018-02-02T16:08:51.351Z,55.60
2018-02-02T16:11:17.988Z,55.90
2018-02-02T16:13:44.416Z,56.20
2018-02-02T16:16:11.247Z,56.50
2018-02-02T16:18:38.159Z,56.40
2018-02-02T16:21:04.628Z,57.00
2018-02-02T16:23:31.164Z,55.90
2018-02-02T16:25:57.630Z,57.00
2018-02-02T16:28:24.271Z,56.50
2018-02-02T16:30:51.077Z,56.50
2018-02-02T16:33:18.500Z,56.90
2018-02-02T16:35:45.172Z,56.50
2018-02-02T16:38:11.644Z,56.90
2018-02-02T16:40:38.143Z,56.80
2018-02-02T16:43:04.676Z,57.80
2018-02-02T16:45:31.315Z,58.50
2018-02-02T16:47:57.820Z,59.20
2018-02-02T16:50:24.402Z,59.20
2018-02-02T16:52:50.776Z,59.10
2018-02-02T16:55:18.376Z,58.10
2018-02-02T16:57:44.859Z,58.80
2018-02-02T17:00:11.668Z,59.50
2018-02-02T17:02:38.183Z,59.90
2018-02-02T17:05:04.778Z,59.70
2018-02-02T17:07:31.360Z,58.80
2018-02-02T17:09:57.943Z,60.10
2018-02-02T17:12:24.416Z,60.80
2018-02-02T17:14:50.919Z,61.20
2018-02-02T17:17:17.456Z,61.10
2018-02-02T17:19:43.836Z,60.80
2018-02-02T17:22:10.572Z,60.80
2018-02-02T17:24:37.021Z,61.40
2018-02-02T17:27:03.543Z,61.70
2018-02-02T17:29:30.148Z,62.00
2018-02-02T17:31:56.667Z,62.30
2018-02-02T17:34:23.164Z,62.00
2018-02-02T17:36:49.683Z,61.60
2018-02-02T17:39:16.280Z,61.80
2018-02-02T17:41:42.747Z,61.80
2018-02-02T17:44:09.368Z,61.90
2018-02-02T17:46:35.847Z,61.50
2018-02-02T17:49:02.972Z,61.50
2018-02-02T17:51:29.523Z,61.80
2018-02-02T17:53:56.031Z,61.80
2018-02-02T17:56:22.949Z,62.10
2018-02-02T17:58:49.484Z,62.10
2018-02-02T18:01:30.899Z,62.30
2018-02-02T18:03:57.579Z,62.30
2018-02-02T18:06:24.063Z,62.40
2018-02-02T18:08:50.902Z,61.40
2018-02-02T18:11:17.820Z,60.70
2018-02-02T18:13:44.299Z,60.30
2018-02-02T18:16:10.878Z,60.80
2018-02-02T18:18:37.731Z,60.60
2018-02-02T18:21:04.300Z,60.80
2018-02-02T18:23:30.795Z,60.70
2018-02-02T18:25:57.283Z,60.80
2018-02-02T18:28:24.120Z,60.30
2018-02-02T18:30:50.724Z,60.40
2018-02-02T18:33:17.165Z,60.10
2018-02-02T18:35:43.576Z,60.20
2018-02-02T18:38:09.975Z,59.90
2018-02-02T18:40:36.560Z,60.20
2018-02-02T18:43:03.104Z,60.60
2018-02-02T18:45:29.552Z,60.60
2018-02-02T18:47:56.099Z,60.40
2018-02-02T18:50:22.632Z,60.40
2018-02-02T18:52:49.055Z,60.40
2018-02-02T18:55:15.688Z,60.10
2018-02-02T18:57:42.223Z,59.90
2018-02-02T19:00:09.099Z,59.20
2018-02-02T19:02:35.470Z,58.60
2018-02-02T19:05:01.880Z,59.10
2018-02-02T19:07:28.374Z,59.50
2018-02-02T19:09:54.944Z,59.20
2018-02-02T19:12:21.447Z,59.10
2018-02-02T19:14:47.967Z,58.30
2018-02-02T19:17:14.568Z,58.10
2018-02-02T19:19:40.976Z,57.60
2018-02-02T19:22:07.627Z,57.60
2018-02-02T19:24:34.119Z,57.90
2018-02-02T19:27:00.716Z,57.40
2018-02-02T19:29:27.177Z,57.60
2018-02-02T19:31:53.728Z,58.50
2018-02-02T19:34:20.300Z,58.10
2018-02-02T19:36:46.711Z,57.80
2018-02-02T19:39:13.676Z,57.70
2018-02-02T19:41:40.167Z,57.90
2018-02-02T19:44:06.707Z,58.00
2018-02-02T19:46:33.122Z,58.30
2018-02-02T19:48:59.792Z,58.20
2018-02-02T19:51:26.380Z,57.60
2018-02-02T19:53:52.839Z,58.20
2018-02-02T19:56:19.444Z,58.40
2018-02-02T19:58:46.328Z,58.30
2018-02-02T20:01:12.756Z,58.10
2018-02-02T20:03:39.353Z,58.30
2018-02-02T20:06:05.836Z,58.90
2018-02-02T20:08:32.428Z,59.30
2018-02-02T20:10:59.082Z,59.00
2018-02-02T20:13:25.884Z,58.80
2018-02-02T20:15:52.274Z,58.70
2018-02-02T20:18:18.880Z,58.80
2018-02-02T20:20:45.456Z,58.90
2018-02-02T20:23:12.503Z,58.00
2018-02-02T20:25:39.041Z,58.20
2018-02-02T20:28:05.650Z,57.90
2018-02-02T20:30:32.098Z,57.90
2018-02-02T20:32:58.708Z,58.00
2018-02-02T20:35:25.173Z,57.80
2018-02-02T20:37:51.728Z,57.80
2018-02-02T20:40:18.107Z,57.70
2018-02-02T20:42:44.832Z,57.70
2018-02-02T20:45:11.372Z,57.60
2018-02-02T20:47:37.859Z,57.60
2018-02-02T20:50:04.426Z,57.40
2018-02-02T20:52:32.184Z,57.40
2018-02-02T20:54:58.796Z,57.30
2018-02-02T20:57:25.218Z,57.10
2018-02-02T20:59:51.818Z,57.20
2018-02-02T21:02:18.301Z,57.20
2018-02-02T21:04:44.888Z,57.50
2018-02-02T21:07:11.300Z,57.40
2018-02-02T21:09:37.936Z,56.90
2018-02-02T21:12:04.432Z,57.00
2018-02-02T21:14:31.020Z,57.00
2018-02-02T21:16:57.568Z,57.20
2018-02-02T21:19:24.079Z,56.80
2018-02-02T21:21:50.585Z,56.80
2018-02-02T21:24:16.944Z,56.50
2018-02-02T21:26:43.444Z,56.50
2018-02-02T21:29:09.915Z,56.30
2018-02-02T21:31:36.703Z,56.50
2018-02-02T21:34:03.235Z,56.40
2018-02-02T21:36:29.803Z,56.50
2018-02-02T21:38:56.313Z,56.70
2018-02-02T21:41:22.856Z,57.10
2018-02-02T21:43:49.388Z,56.80
2018-02-02T21:46:15.759Z,56.80
2018-02-02T21:48:42.168Z,56.50
2018-02-02T21:51:08.648Z,56.70
2018-02-02T21:53:35.223Z,56.70
2018-02-02T21:56:03.116Z,56.40
2018-02-02T21:58:29.549Z,56.40
2018-02-02T22:00:56.178Z,56.20
2018-02-02T22:03:23.202Z,56.30
2018-02-02T22:05:49.816Z,56.50
2018-02-02T22:08:16.350Z,57.00
2018-02-02T22:10:42.827Z,57.00
2018-02-02T22:13:10.476Z,56.80
2018-02-02T22:15:37.486Z,56.90
2018-02-02T22:18:03.950Z,56.60
2018-02-02T22:20:30.520Z,56.70
2018-02-02T22:22:57.042Z,56.80
2018-02-02T22:25:23.571Z,56.80
2018-02-02T22:27:49.988Z,56.90
2018-02-02T22:30:16.655Z,56.60
2018-02-02T22:32:43.488Z,57.00
2018-02-02T22:35:09.997Z,56.70
2018-02-02T22:37:36.792Z,56.90
2018-02-02T22:40:03.388Z,56.90
2018-02-02T22:42:29.918Z,57.30
2018-02-02T22:44:56.465Z,57.10
2018-02-02T22:47:23.041Z,56.70
2018-02-02T22:49:49.531Z,56.70
2018-02-02T22:52:16.057Z,56.50
2018-02-02T22:54:42.583Z,56.30
2018-02-02T22:57:09.119Z,56.30
2018-02-02T22:59:35.679Z,56.50
2018-02-02T23:02:02.217Z,56.40
2018-02-02T23:04:28.754Z,56.20
2018-02-02T23:06:55.297Z,56.20
2018-02-02T23:09:23.348Z,56.00
2018-02-02T23:11:50.248Z,56.00
2018-02-02T23:14:16.731Z,56.40
2018-02-02T23:16:43.295Z,56.40
2018-02-02T23:19:09.792Z,56.40
2018-02-02T23:21:36.323Z,56.70
2018-02-02T23:24:02.884Z,57.00
2018-02-02T23:26:29.406Z,56.60
2018-02-02T23:28:55.942Z,57.00
2018-02-02T23:31:22.799Z,56.70
2018-02-02T23:33:49.319Z,57.10
2018-02-02T23:36:16.183Z,57.40
2018-02-02T23:38:42.731Z,57.30
2018-02-02T23:41:09.243Z,57.50
2018-02-02T23:43:35.751Z,57.40
2018-02-02T23:46:02.621Z,57.80
2018-02-02T23:48:29.500Z,57.80
2018-02-02T23:50:56.320Z,58.20
2018-02-02T23:53:22.835Z,58.10
2018-02-02T23:55:49.357Z,57.60
2018-02-02T23:58:15.892Z,57.50
